Time;durP1;ratioP1;P1;durP2;ratioP2;P2;SDS_P1;SDS_P2;PMS_P1;PMS_P2;Temp;Humidity;BMP_temperature;BMP_pressure;BME280_temperature;BME280_humidity;BME280_pressure;Samples;Min_cycle;Max_cycle;Signal;HPM_P1;HPM_P2
2021/03/11 00:00:25;;;;;;;36.95;18.27;;;;;;;-0.64;46.60;100475.06;5001895;28;20061;-79
2021/03/11 00:02:51;;;;;;;42.95;19.70;;;;;;;-0.64;46.58;100465.66;5000999;28;20041;-78
2021/03/11 00:05:19;;;;;;;41.22;20.85;;;;;;;-0.67;46.80;100459.59;5003851;28;20125;-77
2021/03/11 00:07:48;;;;;;;39.35;18.10;;;;;;;-0.72;46.91;100459.56;5002573;28;20058;-77
2021/03/11 00:10:15;;;;;;;44.58;18.33;;;;;;;-0.72;47.26;100467.28;5009397;28;20081;-73
2021/03/11 00:12:42;;;;;;;38.60;18.05;;;;;;;-0.74;46.87;100462.97;4998077;28;20145;-72
2021/03/11 00:15:12;;;;;;;40.03;18.88;;;;;;;-0.77;47.07;100460.38;5002995;28;20132;-74
2021/03/11 00:17:39;;;;;;;45.28;20.38;;;;;;;-0.80;47.07;100462.91;4995139;28;20557;-73
2021/03/11 00:20:08;;;;;;;41.70;18.50;;;;;;;-0.81;47.07;100458.63;5005030;28;20140;-73
2021/03/11 00:22:34;;;;;;;37.28;18.95;;;;;;;-0.80;47.14;100462.91;5000804;28;20074;-73
2021/03/11 00:25:00;;;;;;;32.38;17.58;;;;;;;-0.80;47.16;100457.75;5007192;28;20137;-72
2021/03/11 00:27:26;;;;;;;31.60;16.63;;;;;;;-0.80;47.07;100461.19;5002366;28;20081;-74
2021/03/11 00:29:52;;;;;;;39.75;19.33;;;;;;;-0.77;47.15;100460.38;5006288;28;20137;-74
2021/03/11 00:32:18;;;;;;;36.58;16.85;;;;;;;-0.79;47.12;100455.22;5001935;28;20156;-74
2021/03/11 00:34:45;;;;;;;33.20;17.65;;;;;;;-0.80;47.17;100456.06;5007138;28;20058;-73
2021/03/11 00:37:11;;;;;;;38.33;18.23;;;;;;;-0.78;47.03;100459.50;5000808;28;20073;-74
2021/03/11 00:39:37;;;;;;;34.97;17.80;;;;;;;-0.75;47.12;100456.09;4999255;28;20054;-74
2021/03/11 00:42:04;;;;;;;33.13;16.98;;;;;;;-0.75;46.99;100456.09;5002236;28;20104;-74
2021/03/11 00:44:30;;;;;;;43.85;18.30;;;;;;;-0.76;47.28;100449.22;5003225;28;20166;-74
2021/03/11 00:46:57;;;;;;;37.30;18.00;;;;;;;-0.78;47.23;100448.34;4999856;28;20078;-74
2021/03/11 00:49:24;;;;;;;38.40;18.27;;;;;;;-0.80;47.27;100443.19;5005932;28;20072;-73
2021/03/11 00:51:51;;;;;;;38.28;17.30;;;;;;;-0.81;47.53;100450.88;4994820;28;20141;-74
2021/03/11 00:54:17;;;;;;;40.85;18.02;;;;;;;-0.82;47.44;100444.03;5009407;28;20501;-74
2021/03/11 00:56:43;;;;;;;37.33;17.27;;;;;;;-0.84;47.55;100440.53;5004372;28;20089;-73
2021/03/11 00:59:09;;;;;;;38.33;17.33;;;;;;;-0.87;47.69;100445.66;5006414;28;20561;-73
2021/03/11 01:01:35;;;;;;;33.80;16.60;;;;;;;-0.90;47.74;100445.63;5006346;28;20382;-73
2021/03/11 01:04:02;;;;;;;36.55;16.70;;;;;;;-0.94;47.99;100449.88;5003161;28;20073;-74
2021/03/11 01:06:28;;;;;;;38.55;16.23;;;;;;;-0.97;47.96;100448.13;5005744;28;20057;-74
2021/03/11 01:08:55;;;;;;;39.17;17.13;;;;;;;-0.96;47.93;100452.44;4999548;28;20088;-73
2021/03/11 01:11:21;;;;;;;36.38;16.90;;;;;;;-0.94;47.74;100455.88;5000924;28;20057;-73
2021/03/11 01:13:47;;;;;;;35.10;16.67;;;;;;;-0.96;47.78;100452.44;5004384;28;20931;-72
2021/03/11 01:16:14;;;;;;;34.28;15.95;;;;;;;-0.98;48.21;100450.69;5002321;28;20096;-73
2021/03/11 01:18:40;;;;;;;36.58;16.35;;;;;;;-1.01;47.95;100440.38;5007281;28;20136;-73
2021/03/11 01:21:06;;;;;;;34.03;16.65;;;;;;;-1.04;48.12;100443.78;5000555;28;20053;-74
2021/03/11 01:23:33;;;;;;;34.75;16.80;;;;;;;-1.04;48.08;100440.31;5003230;28;20157;-74
2021/03/11 01:26:00;;;;;;;37.33;17.35;;;;;;;-1.03;48.06;100439.50;5004588;28;20058;-74
2021/03/11 01:28:26;;;;;;;42.17;17.50;;;;;;;-1.02;48.06;100430.94;5005457;28;20077;-73
2021/03/11 01:30:52;;;;;;;35.20;16.65;;;;;;;-1.06;48.04;100435.16;5006255;28;20446;-73
2021/03/11 01:33:18;;;;;;;31.33;16.52;;;;;;;-1.05;48.14;100428.28;5007945;28;20060;-73
2021/03/11 01:35:44;;;;;;;33.22;17.27;;;;;;;-1.06;48.25;100422.28;5005514;28;20073;-74
2021/03/11 01:38:10;;;;;;;37.88;18.25;;;;;;;-1.04;48.33;100417.16;5009005;28;20113;-73
2021/03/11 01:40:36;;;;;;;34.47;17.85;;;;;;;-1.06;48.20;100412.00;5009867;28;20746;-74
2021/03/11 01:43:04;;;;;;;32.25;16.92;;;;;;;-1.08;48.34;100411.13;5000331;28;20050;-73
2021/03/11 01:45:30;;;;;;;40.15;16.70;;;;;;;-1.07;48.46;100410.28;5008293;28;20132;-73
2021/03/11 01:47:56;;;;;;;29.60;16.70;;;;;;;-1.06;48.25;100404.28;5008248;28;20471;-73
2021/03/11 01:50:22;;;;;;;30.45;16.80;;;;;;;-1.06;48.38;100400.84;5010198;28;20050;-73
2021/03/11 01:52:50;;;;;;;38.10;16.40;;;;;;;-1.07;48.42;100391.41;5000982;28;20077;-73
2021/03/11 01:55:17;;;;;;;40.13;17.27;;;;;;;-1.13;48.48;100394.78;5006208;28;20177;-73
2021/03/11 01:57:45;;;;;;;37.45;17.50;;;;;;;-1.13;48.49;100392.19;5002002;28;20137;-75
2021/03/11 02:00:13;;;;;;;34.20;16.88;;;;;;;-1.17;48.41;100385.31;5010754;28;20061;-74
2021/03/11 02:02:40;;;;;;;33.83;17.27;;;;;;;-1.18;48.59;100382.72;5011910;28;20054;-74
2021/03/11 02:05:07;;;;;;;28.10;16.02;;;;;;;-1.22;48.76;100376.69;5003879;28;20054;-74
2021/03/11 02:07:34;;;;;;;38.50;16.85;;;;;;;-1.22;48.70;100376.69;5006317;28;20086;-74
2021/03/11 02:10:00;;;;;;;33.58;16.38;;;;;;;-1.24;48.65;100371.53;5015530;28;20060;-74
2021/03/11 02:12:37;;;;;;;36.72;18.13;;;;;;;-1.31;48.93;100371.41;5004821;28;20042;-74
2021/03/11 02:15:07;;;;;;;32.63;17.10;;;;;;;-1.32;48.93;100369.69;5004509;28;20053;-73
2021/03/11 02:17:40;;;;;;;34.85;16.98;;;;;;;-1.39;48.99;100362.75;5005503;28;20050;-72
2021/03/11 02:20:27;;;;;;;30.98;17.77;;;;;;;-1.41;49.28;100361.88;5006237;28;20045;-72
2021/03/11 02:23:07;;;;;;;32.92;17.67;;;;;;;-1.44;49.20;100354.13;5003827;28;20153;-73
2021/03/11 02:25:43;;;;;;;40.88;17.67;;;;;;;-1.48;49.46;100347.19;5005913;28;20053;-73
2021/03/11 02:28:19;;;;;;;36.75;17.63;;;;;;;-1.50;49.40;100349.75;5006095;28;20053;-72
2021/03/11 02:30:46;;;;;;;43.70;20.02;;;;;;;-1.52;49.31;100350.59;5005660;28;20049;-72
2021/03/11 02:33:14;;;;;;;34.50;17.67;;;;;;;-1.57;49.63;100338.53;5002315;28;20077;-73
2021/03/11 02:35:42;;;;;;;42.80;19.17;;;;;;;-1.62;49.69;100334.19;5007683;28;20501;-73
2021/03/11 02:38:12;;;;;;;49.88;19.77;;;;;;;-1.63;49.74;100338.47;5002994;28;20073;-75
2021/03/11 02:40:41;;;;;;;45.00;20.27;;;;;;;-1.64;49.80;100328.19;5008967;28;20052;-73
2021/03/11 02:43:11;;;;;;;39.13;18.17;;;;;;;-1.65;49.94;100329.03;4999642;28;20054;-72
2021/03/11 02:45:38;;;;;;;44.95;18.20;;;;;;;-1.66;49.92;100317.88;5009498;28;20085;-73
2021/03/11 02:48:08;;;;;;;39.22;19.85;;;;;;;-1.69;50.07;100322.97;5007250;28;20062;-73
2021/03/11 02:50:36;;;;;;;46.45;19.63;;;;;;;-1.68;50.11;100326.41;5010083;28;20133;-73
2021/03/11 02:53:06;;;;;;;41.88;20.02;;;;;;;-1.71;50.13;100316.94;5007696;28;20525;-73
2021/03/11 02:55:33;;;;;;;38.40;19.33;;;;;;;-1.73;50.34;100325.47;5003555;28;20486;-74
2021/03/11 02:58:01;;;;;;;39.03;18.52;;;;;;;-1.76;50.42;100313.47;5004648;28;20057;-73
2021/03/11 03:00:30;;;;;;;43.40;19.40;;;;;;;-1.77;50.26;100324.59;5003774;28;20414;-73
2021/03/11 03:02:57;;;;;;;43.55;19.58;;;;;;;-1.76;50.44;100325.44;5007528;28;20458;-73
2021/03/11 03:05:27;;;;;;;43.67;19.42;;;;;;;-1.75;50.30;100328.03;5012045;28;20064;-72
2021/03/11 03:07:55;;;;;;;42.45;17.67;;;;;;;-1.76;50.36;100321.16;5009043;28;20064;-73
2021/03/11 03:10:26;;;;;;;41.10;19.15;;;;;;;-1.80;50.56;100324.56;4996209;28;20301;-74
2021/03/11 03:12:55;;;;;;;39.55;19.52;;;;;;;-1.81;50.55;100321.97;4993779;28;20092;-73
2021/03/11 03:15:23;;;;;;;42.13;19.80;;;;;;;-1.84;50.63;100322.78;5011455;28;20140;-74
2021/03/11 03:17:51;;;;;;;46.13;17.63;;;;;;;-1.85;50.58;100326.22;5013046;28;20061;-73
2021/03/11 03:20:18;;;;;;;39.72;19.52;;;;;;;-1.91;50.77;100321.81;5012683;28;20153;-73
2021/03/11 03:22:47;;;;;;;40.72;19.83;;;;;;;-1.95;50.81;100319.22;5013265;28;20060;-73
2021/03/11 03:25:15;;;;;;;38.78;20.70;;;;;;;-1.97;50.89;100314.06;5012770;28;20103;-72
2021/03/11 03:27:42;;;;;;;49.50;20.65;;;;;;;-2.00;51.01;100316.59;5012830;28;20489;-72
2021/03/11 03:30:11;;;;;;;44.40;20.67;;;;;;;-2.00;51.19;100315.72;5012653;28;20137;-74
2021/03/11 03:32:37;;;;;;;44.97;20.58;;;;;;;-2.04;51.12;100313.97;5012590;28;20144;-71
2021/03/11 03:35:05;;;;;;;56.28;21.83;;;;;;;-2.06;51.05;100325.91;5007370;28;20050;-72
2021/03/11 03:37:31;;;;;;;47.42;21.98;;;;;;;-2.05;51.15;100319.94;4997806;28;20054;-73
2021/03/11 03:39:58;;;;;;;47.92;20.95;;;;;;;-2.05;51.14;100318.22;5000765;28;20085;-73
2021/03/11 03:42:28;;;;;;;45.97;21.77;;;;;;;-2.04;51.23;100304.53;5010374;28;20082;-72
2021/03/11 03:44:56;;;;;;;46.60;19.20;;;;;;;-2.06;51.28;100311.38;5012543;28;20137;-73
2021/03/11 03:47:22;;;;;;;46.47;20.60;;;;;;;-2.07;51.21;100301.94;5012075;28;20153;-73
2021/03/11 03:49:48;;;;;;;48.97;20.58;;;;;;;-2.06;51.32;100300.22;5012694;28;20081;-73
2021/03/11 03:52:15;;;;;;;39.17;20.45;;;;;;;-2.08;51.13;100294.19;5012213;28;20050;-75
2021/03/11 03:54:43;;;;;;;42.42;22.00;;;;;;;-2.09;51.39;100284.75;5012565;28;20081;-72
2021/03/11 03:57:16;;;;;;;46.67;23.25;;;;;;;-2.09;51.34;100283.03;5012513;28;20052;-73
2021/03/11 03:59:45;;;;;;;51.22;20.88;;;;;;;-2.08;51.43;100283.91;5012561;28;20064;-73
2021/03/11 04:02:13;;;;;;;44.22;21.67;;;;;;;-2.09;51.39;100282.19;5011335;28;20050;-73
2021/03/11 04:04:43;;;;;;;40.65;19.65;;;;;;;-2.10;51.54;100283.03;5009006;28;20046;-72
2021/03/11 04:07:11;;;;;;;48.45;21.85;;;;;;;-2.10;51.36;100285.59;4998995;28;20090;-73
2021/03/11 04:09:38;;;;;;;49.58;22.25;;;;;;;-2.10;51.67;100289.03;5001027;28;20569;-74
2021/03/11 04:12:06;;;;;;;49.15;22.27;;;;;;;-2.12;51.52;100275.31;5011980;28;20054;-74
2021/03/11 04:14:36;;;;;;;50.08;20.38;;;;;;;-2.15;51.70;100276.13;5005985;28;20049;-74
2021/03/11 04:17:05;;;;;;;44.13;20.50;;;;;;;-2.15;51.63;100276.13;5012044;28;20164;-75
2021/03/11 04:19:32;;;;;;;53.58;22.02;;;;;;;-2.12;51.43;100282.16;5011963;28;20489;-74
2021/03/11 04:21:58;;;;;;;49.50;21.60;;;;;;;-2.11;51.50;100268.47;5011066;28;20054;-74
2021/03/11 04:24:24;;;;;;;39.17;19.27;;;;;;;-2.11;51.80;100281.31;5011974;28;20054;-75
2021/03/11 04:26:51;;;;;;;40.35;19.13;;;;;;;-2.12;51.50;100271.88;5011990;28;20477;-74
2021/03/11 04:29:20;;;;;;;44.25;22.33;;;;;;;-2.13;51.62;100262.44;5011988;28;20518;-74
2021/03/11 04:31:47;;;;;;;49.45;21.50;;;;;;;-2.15;51.65;100265.00;5011613;28;20364;-73
2021/03/11 04:34:13;;;;;;;41.70;20.30;;;;;;;-2.17;51.41;100267.56;5010260;28;20133;-74
2021/03/11 04:36:40;;;;;;;44.20;20.35;;;;;;;-2.17;51.59;100259.84;5012074;28;20045;-74
2021/03/11 04:39:07;;;;;;;45.60;20.80;;;;;;;-2.17;51.53;100264.97;5009284;28;20509;-72
2021/03/11 04:41:34;;;;;;;50.70;19.80;;;;;;;-2.17;51.59;100247.00;5001576;28;20506;-79
2021/03/11 04:44:02;;;;;;;51.03;20.90;;;;;;;-2.20;51.66;100246.97;4999599;28;20659;-79
2021/03/11 04:46:29;;;;;;;56.97;21.48;;;;;;;-2.20;51.51;100248.66;5006331;28;20504;-80
2021/03/11 04:48:59;;;;;;;47.10;20.50;;;;;;;-2.17;51.60;100251.28;5012079;28;20050;-80
2021/03/11 04:51:26;;;;;;;52.83;23.13;;;;;;;-2.15;51.45;100255.59;5010727;28;20081;-79
2021/03/11 04:53:54;;;;;;;50.95;20.42;;;;;;;-2.17;51.47;100252.13;5011764;28;20445;-80
2021/03/11 04:56:22;;;;;;;46.25;20.45;;;;;;;-2.14;51.45;100251.31;5011696;28;20490;-78
2021/03/11 04:58:49;;;;;;;45.47;20.55;;;;;;;-2.12;51.30;100252.19;5011154;28;20070;-80
2021/03/11 05:01:20;;;;;;;42.75;21.02;;;;;;;-2.12;51.40;100244.47;5011202;28;20077;-79
2021/03/11 05:03:47;;;;;;;33.00;16.98;;;;;;;-2.05;51.05;100235.16;4997980;28;20079;-79
2021/03/11 05:06:14;;;;;;;42.60;21.15;;;;;;;-2.05;51.19;100235.16;5015719;28;20081;-78
2021/03/11 05:08:41;;;;;;;45.97;18.77;;;;;;;-2.03;51.04;100230.91;5017073;28;20138;-78
2021/03/11 05:11:08;;;;;;;49.55;20.35;;;;;;;-1.99;51.09;100219.81;5006103;28;20146;-78
2021/03/11 05:13:34;;;;;;;45.17;20.02;;;;;;;-1.96;51.02;100219.84;5013692;28;20549;-77
2021/03/11 05:16:02;;;;;;;43.38;20.17;;;;;;;-1.94;51.16;100218.16;5013920;28;20438;-79
2021/03/11 05:18:28;;;;;;;43.35;20.33;;;;;;;-1.87;50.91;100208.00;5009817;28;20141;-78
2021/03/11 05:20:55;;;;;;;41.10;19.58;;;;;;;-1.77;50.74;100206.38;4998708;28;20051;-79
2021/03/11 05:23:22;;;;;;;44.35;21.63;;;;;;;-1.69;50.72;100209.88;4998348;28;20054;-78
2021/03/11 05:25:48;;;;;;;41.53;19.40;;;;;;;-1.59;50.52;100211.69;5015205;28;20149;-78
2021/03/11 05:28:14;;;;;;;41.58;19.27;;;;;;;-1.41;50.13;100210.16;5014793;28;20057;-77
2021/03/11 05:30:41;;;;;;;46.60;20.98;;;;;;;-1.16;49.88;100191.53;5015524;28;20510;-78
2021/03/11 05:33:07;;;;;;;36.15;18.13;;;;;;;-0.85;49.47;100191.72;5014923;28;20058;-80
2021/03/11 05:35:33;;;;;;;38.17;19.50;;;;;;;-0.66;49.22;100176.41;5014956;28;20100;-78
2021/03/11 05:38:00;;;;;;;43.53;18.75;;;;;;;-0.50;49.00;100177.38;5014679;28;20136;-79
2021/03/11 05:40:28;;;;;;;39.70;19.67;;;;;;;-0.40;48.83;100170.56;5015352;28;20046;-78
2021/03/11 05:42:58;;;;;;;40.60;20.00;;;;;;;-0.26;48.59;100176.63;5016007;28;20140;-80
2021/03/11 05:45:25;;;;;;;43.08;18.88;;;;;;;-0.16;48.22;100170.66;5015153;28;20153;-77
2021/03/11 05:47:52;;;;;;;45.13;19.88;;;;;;;-0.04;47.98;100175.84;5009540;28;20054;-78
2021/03/11 05:50:19;;;;;;;46.83;21.17;;;;;;;0.15;47.80;100169.03;5000505;28;20145;-77
2021/03/11 05:52:45;;;;;;;44.20;21.65;;;;;;;0.40;47.14;100162.19;4994468;28;20038;-79
2021/03/11 05:55:12;;;;;;;37.97;19.02;;;;;;;0.55;47.09;100151.91;5011266;28;20193;-80
2021/03/11 05:57:40;;;;;;;32.85;18.20;;;;;;;0.66;46.78;100145.91;5014825;28;20076;-79
2021/03/11 06:00:07;;;;;;;38.47;17.83;;;;;;;0.87;46.32;100151.06;5014408;28;20406;-79
2021/03/11 06:02:34;;;;;;;30.23;16.95;;;;;;;1.02;46.17;100142.41;5014365;28;20149;-79
2021/03/11 06:05:00;;;;;;;39.55;18.15;;;;;;;1.08;46.12;100129.50;5014741;28;20050;-79
2021/03/11 06:07:27;;;;;;;38.95;17.25;;;;;;;1.13;45.91;100127.78;5013968;28;20050;-78
2021/03/11 06:09:55;;;;;;;36.80;17.88;;;;;;;1.15;45.72;100128.63;5015043;28;20076;-79
2021/03/11 06:12:23;;;;;;;33.92;17.05;;;;;;;1.15;45.67;100131.22;5014373;28;20072;-79
2021/03/11 06:14:55;;;;;;;34.97;17.63;;;;;;;1.16;45.41;100122.59;5011011;28;20064;-77
2021/03/11 06:17:22;;;;;;;31.17;17.10;;;;;;;1.29;45.29;100106.22;4999536;28;20081;-79
2021/03/11 06:19:49;;;;;;;34.25;17.75;;;;;;;1.54;44.63;100107.00;5008921;28;20540;-75
2021/03/11 06:22:16;;;;;;;39.70;18.65;;;;;;;1.83;44.26;100109.44;5007411;28;20103;-78
2021/03/11 06:24:44;;;;;;;33.25;17.20;;;;;;;2.06;43.90;100102.41;4996076;28;20043;-78
2021/03/11 06:27:10;;;;;;;34.60;17.52;;;;;;;2.23;43.78;100091.09;5012823;28;20085;-78
2021/03/11 06:29:37;;;;;;;34.88;17.77;;;;;;;2.36;43.10;100100.50;5013652;28;20061;-79
2021/03/11 06:32:05;;;;;;;32.15;16.70;;;;;;;2.46;43.04;100089.19;5013803;28;20053;-78
2021/03/11 06:34:36;;;;;;;31.40;17.33;;;;;;;2.56;42.74;100088.25;5013271;28;20053;-77
2021/03/11 06:37:03;;;;;;;34.60;18.05;;;;;;;2.89;42.38;100088.81;5005919;28;20559;-77
2021/03/11 06:39:31;;;;;;;30.48;15.63;;;;;;;3.03;41.84;100094.72;5010118;28;20077;-77
2021/03/11 06:41:59;;;;;;;36.92;17.00;;;;;;;3.14;41.92;100077.34;5011963;28;20516;-77
2021/03/11 06:44:37;;;;;;;33.67;18.65;;;;;;;3.41;41.31;100076.16;5013989;28;20380;-77
2021/03/11 06:47:06;;;;;;;31.50;16.13;;;;;;;3.63;40.75;100071.56;5013917;28;20053;-77
2021/03/11 06:49:32;;;;;;;32.72;16.83;;;;;;;4.05;40.00;100067.53;5008511;28;20561;-77
2021/03/11 06:52:13;;;;;;;31.60;16.20;;;;;;;4.49;39.63;100072.03;4996600;28;20112;-77
2021/03/11 06:54:54;;;;;;;29.35;16.65;;;;;;;5.03;38.37;100082.34;4999389;28;20046;-77
2021/03/11 06:57:27;;;;;;;31.40;15.65;;;;;;;5.49;38.05;100073.66;4994421;28;20403;-79
2021/03/11 06:59:53;;;;;;;28.30;14.85;;;;;;;6.04;37.15;100069.91;5008411;28;20042;-79
2021/03/11 07:02:21;;;;;;;28.98;15.80;;;;;;;6.33;36.74;100067.47;5012861;28;20439;-77
2021/03/11 07:04:48;;;;;;;27.00;15.02;;;;;;;6.47;36.17;100071.50;5012633;28;20060;-78
2021/03/11 07:07:19;;;;;;;31.08;15.35;;;;;;;6.49;36.23;100078.38;5012819;28;20053;-78
2021/03/11 07:09:46;;;;;;;26.23;15.05;;;;;;;6.60;35.91;100078.09;5013276;28;20556;-77
2021/03/11 07:12:12;;;;;;;28.38;14.35;;;;;;;6.69;35.63;100070.06;5012922;28;20553;-78
2021/03/11 07:14:38;;;;;;;29.38;14.77;;;;;;;6.76;35.37;100069.00;5012953;28;20142;-77
2021/03/11 07:17:22;;;;;;;27.80;14.48;;;;;;;6.97;35.10;100071.06;5011208;28;20052;-77
2021/03/11 07:20:09;;;;;;;27.95;14.00;;;;;;;6.69;35.19;100060.50;5012363;28;20140;-78
2021/03/11 07:22:36;;;;;;;25.05;14.13;;;;;;;6.33;35.40;100057.06;5010469;28;20073;-78
2021/03/11 07:25:04;;;;;;;26.20;15.18;;;;;;;6.15;35.27;100043.63;5012006;28;20056;-79
2021/03/11 07:27:40;;;;;;;28.08;13.82;;;;;;;5.92;35.40;100046.75;5011849;28;20581;-78
2021/03/11 07:30:08;;;;;;;26.05;13.93;;;;;;;6.06;34.85;100039.50;5011726;28;20042;-77
2021/03/11 07:32:36;;;;;;;30.05;13.10;;;;;;;5.93;34.98;100032.84;5010359;28;20074;-77
2021/03/11 07:35:03;;;;;;;28.45;13.80;;;;;;;5.87;34.77;100030.34;5012672;28;20088;-77
2021/03/11 07:37:30;;;;;;;22.45;12.43;;;;;;;5.70;34.53;100026.38;5010971;28;20077;-76
2021/03/11 07:39:58;;;;;;;29.02;14.18;;;;;;;5.59;34.78;100025.75;5012079;28;20077;-78
2021/03/11 07:42:25;;;;;;;19.73;11.85;;;;;;;5.57;34.59;100014.53;5012953;28;20042;-77
2021/03/11 07:44:52;;;;;;;24.02;12.75;;;;;;;5.57;34.46;100009.31;5009862;28;20089;-77
2021/03/11 07:47:18;;;;;;;29.15;14.38;;;;;;;5.45;34.68;100009.59;5012180;28;20207;-76
2021/03/11 07:49:46;;;;;;;23.88;12.18;;;;;;;5.24;34.67;100007.47;5012402;28;20080;-75
2021/03/11 07:52:12;;;;;;;31.27;13.35;;;;;;;5.26;34.44;100011.72;5011038;28;20438;-76
2021/03/11 07:54:39;;;;;;;24.83;12.93;;;;;;;5.23;34.39;99987.56;5009467;28;20073;-77
2021/03/11 07:57:06;;;;;;;24.83;13.23;;;;;;;5.39;34.20;100002.78;5012156;28;20052;-75
2021/03/11 07:59:34;;;;;;;22.63;12.60;;;;;;;5.51;33.94;100001.66;5010828;28;20454;-78
2021/03/11 08:02:06;;;;;;;38.03;14.25;;;;;;;5.53;33.94;99993.84;5004118;28;20547;-77
2021/03/11 08:04:35;;;;;;;25.55;12.77;;;;;;;5.69;33.36;99993.47;5005190;28;20049;-76
2021/03/11 08:07:22;;;;;;;23.35;12.68;;;;;;;5.90;33.34;99997.34;5004326;28;20516;-76
2021/03/11 08:09:51;;;;;;;23.77;13.93;;;;;;;5.82;32.95;99994.88;5009065;28;20140;-76
2021/03/11 08:12:37;;;;;;;25.15;13.10;;;;;;;5.87;33.12;99984.38;5011546;28;20057;-76
2021/03/11 08:15:05;;;;;;;22.17;12.68;;;;;;;5.92;33.09;99985.16;5009883;28;20514;-75
2021/03/11 08:17:46;;;;;;;22.85;13.23;;;;;;;6.00;32.96;99982.38;5008443;28;20268;-76
2021/03/11 08:20:40;;;;;;;19.17;11.65;;;;;;;6.24;32.84;99967.88;5008412;28;20516;-75
2021/03/11 08:23:11;;;;;;;27.10;12.80;;;;;;;6.19;32.72;99973.22;5014768;28;20057;-75
2021/03/11 08:25:47;;;;;;;21.65;12.27;;;;;;;6.29;32.59;99966.06;5020543;28;20136;-77
2021/03/11 08:28:46;;;;;;;25.45;12.65;;;;;;;6.12;32.77;99953.47;4999163;28;20104;-76
2021/03/11 08:31:13;;;;;;;26.60;13.05;;;;;;;6.34;32.59;99961.56;5005531;28;20078;-76
2021/03/11 08:33:49;;;;;;;26.58;12.85;;;;;;;6.29;32.55;99940.88;4999295;28;20497;-76
2021/03/11 08:36:37;;;;;;;23.77;11.98;;;;;;;6.13;32.75;99918.72;5002846;28;20061;-76
2021/03/11 08:39:20;;;;;;;26.77;12.85;;;;;;;6.39;32.02;99920.66;5002062;28;20045;-76
2021/03/11 08:41:47;;;;;;;23.35;11.93;;;;;;;6.22;32.29;99918.47;5005109;28;20089;-76
2021/03/11 08:44:13;;;;;;;27.00;12.68;;;;;;;6.29;32.25;99932.22;5004430;28;20096;-75
2021/03/11 08:46:53;;;;;;;22.83;11.63;;;;;;;6.37;32.17;99914.63;4993077;28;20038;-73
2021/03/11 08:49:39;;;;;;;22.75;12.07;;;;;;;6.72;31.65;99900.66;5003600;28;20739;-74
2021/03/11 08:52:06;;;;;;;25.35;12.07;;;;;;;6.85;31.38;99901.13;5002271;28;20061;-75
2021/03/11 08:54:33;;;;;;;22.27;12.35;;;;;;;6.81;31.22;99900.38;5002134;28;20092;-74
2021/03/11 08:56:59;;;;;;;27.85;12.32;;;;;;;6.87;31.42;99889.81;5001806;28;20053;-74
2021/03/11 08:59:47;;;;;;;22.65;13.82;;;;;;;7.08;31.25;99892.66;5004154;28;20549;-75
2021/03/11 09:02:32;;;;;;;20.67;13.20;;;;;;;7.19;31.31;99885.38;4999600;28;20054;-76
2021/03/11 09:04:58;;;;;;;27.65;14.05;;;;;;;7.35;31.21;99886.63;5006143;28;20462;-76
2021/03/11 09:07:29;;;;;;;23.55;11.50;;;;;;;7.39;31.24;99882.16;5004619;28;20086;-77
2021/03/11 09:09:57;;;;;;;22.52;12.27;;;;;;;7.28;30.86;99854.66;5006789;28;20476;-75
2021/03/11 09:12:30;;;;;;;26.60;13.43;;;;;;;7.52;30.77;99842.63;5007707;28;20054;-76
2021/03/11 09:14:58;;;;;;;26.33;12.88;;;;;;;7.33;30.53;99867.56;5006096;28;20144;-75
2021/03/11 09:17:28;;;;;;;20.48;11.85;;;;;;;7.17;30.62;99850.69;5005763;28;20052;-77
2021/03/11 09:20:00;;;;;;;22.27;12.00;;;;;;;7.27;30.37;99852.09;5006372;28;20494;-76
2021/03/11 09:22:29;;;;;;;23.92;13.38;;;;;;;7.22;30.28;99840.97;4999362;28;20487;-77
2021/03/11 09:25:11;;;;;;;26.20;13.32;;;;;;;7.36;30.17;99814.47;5006162;28;20422;-76
2021/03/11 09:27:39;;;;;;;21.70;13.82;;;;;;;7.16;30.24;99828.13;5001310;28;20506;-76
2021/03/11 09:30:08;;;;;;;20.88;12.60;;;;;;;7.16;30.17;99809.88;4993641;28;20054;-77
2021/03/11 09:32:35;;;;;;;25.90;14.00;;;;;;;7.07;30.00;99828.38;5007026;28;20665;-77
2021/03/11 09:35:05;;;;;;;20.38;12.07;;;;;;;7.17;30.20;99811.59;5006208;28;20050;-76
2021/03/11 09:37:52;;;;;;;26.88;14.10;;;;;;;7.03;30.45;99791.16;5005120;28;20041;-75
2021/03/11 09:40:25;;;;;;;24.95;13.88;;;;;;;6.77;30.52;99789.34;5006466;28;20152;-74
2021/03/11 09:43:22;;;;;;;26.88;14.80;;;;;;;6.63;30.60;99775.88;5007240;28;20046;-81
2021/03/11 09:45:51;;;;;;;24.30;14.25;;;;;;;6.61;30.76;99783.72;5001886;28;20058;-76
2021/03/11 09:48:20;;;;;;;25.10;14.27;;;;;;;6.71;30.93;99773.91;5007517;28;20085;-76
2021/03/11 09:50:54;;;;;;;23.48;14.88;;;;;;;6.64;30.42;99770.63;5010967;28;20106;-74
2021/03/11 09:53:22;;;;;;;23.75;13.90;;;;;;;6.72;30.56;99759.97;5010825;28;20054;-76
2021/03/11 09:55:53;;;;;;;27.38;14.63;;;;;;;6.73;30.53;99754.72;5000810;28;20054;-78
2021/03/11 09:58:20;;;;;;;29.05;15.98;;;;;;;6.65;30.66;99761.03;5011708;28;20046;-77
2021/03/11 10:00:47;;;;;;;24.05;13.57;;;;;;;6.35;31.24;99727.22;5012468;28;20097;-78
2021/03/11 10:03:23;;;;;;;27.90;15.02;;;;;;;6.11;31.33;99741.78;5011278;28;20069;-77
2021/03/11 10:05:58;;;;;;;29.33;14.68;;;;;;;6.14;31.23;99720.03;5009072;28;20081;-81
2021/03/11 10:08:36;;;;;;;30.30;14.65;;;;;;;6.06;31.24;99732.44;5010102;28;20049;-74
2021/03/11 10:11:12;;;;;;;29.50;13.30;;;;;;;5.93;31.33;99716.28;5011849;28;20038;-71
2021/03/11 10:13:41;;;;;;;28.00;13.48;;;;;;;5.85;31.34;99705.22;5011291;28;20118;-75
2021/03/11 10:16:09;;;;;;;28.77;14.73;;;;;;;5.89;31.31;99705.97;5006578;28;20061;-77
2021/03/11 10:18:36;;;;;;;29.80;14.38;;;;;;;5.85;31.32;99702.63;5008928;28;20050;-77
2021/03/11 10:21:05;;;;;;;30.00;13.43;;;;;;;5.85;31.24;99696.56;5010616;28;20137;-78
2021/03/11 10:23:31;;;;;;;24.75;13.07;;;;;;;5.82;31.15;99689.69;5008314;28;20078;-76
2021/03/11 10:26:19;;;;;;;26.08;13.90;;;;;;;5.82;31.45;99682.72;5006025;28;20124;-77
2021/03/11 10:28:48;;;;;;;23.75;13.45;;;;;;;5.87;31.30;99677.41;5003990;28;20109;-78
2021/03/11 10:31:15;;;;;;;21.98;12.32;;;;;;;5.97;31.05;99668.47;5005010;28;20049;-78
2021/03/11 10:33:42;;;;;;;22.40;13.15;;;;;;;6.04;31.17;99672.63;5008737;28;20058;-78
2021/03/11 10:36:17;;;;;;;21.75;12.15;;;;;;;6.03;30.94;99678.69;5002005;28;20054;-78
2021/03/11 10:39:00;;;;;;;25.40;13.15;;;;;;;6.05;31.10;99663.06;5007699;28;20077;-81
2021/03/11 10:41:27;;;;;;;21.20;11.73;;;;;;;6.04;30.85;99653.56;5006218;28;20520;-80
2021/03/11 10:44:04;;;;;;;17.77;11.35;;;;;;;6.05;30.93;99645.69;5007661;28;20140;-78
2021/03/11 10:46:31;;;;;;;18.55;10.55;;;;;;;6.03;30.88;99629.25;5008848;28;20046;-79
2021/03/11 10:48:57;;;;;;;17.60;11.27;;;;;;;6.03;30.85;99628.41;5008487;28;20491;-79
2021/03/11 10:51:27;;;;;;;24.50;11.48;;;;;;;6.23;30.55;99620.84;5007753;28;20048;-79
2021/03/11 10:53:54;;;;;;;22.92;12.15;;;;;;;6.30;30.86;99622.38;5005797;28;20080;-76
2021/03/11 10:56:20;;;;;;;20.40;11.43;;;;;;;6.17;30.62;99641.00;5005855;28;20046;-75
2021/03/11 10:58:48;;;;;;;23.23;11.63;;;;;;;6.18;30.69;99598.47;5005968;28;20053;-75
2021/03/11 11:01:17;;;;;;;32.38;12.85;;;;;;;6.28;30.79;99598.16;5006508;28;20514;-73
2021/03/11 11:03:45;;;;;;;25.70;11.75;;;;;;;6.39;30.55;99598.66;5002134;28;20042;-73
2021/03/11 11:06:12;;;;;;;19.88;12.65;;;;;;;6.23;30.70;99587.00;5005825;28;20050;-73
2021/03/11 11:08:43;;;;;;;25.38;12.45;;;;;;;6.26;30.52;99584.34;5006479;28;20340;-73
2021/03/11 11:11:09;;;;;;;20.48;11.60;;;;;;;6.38;30.83;99593.50;5001810;28;20058;-72
2021/03/11 11:13:35;;;;;;;17.80;10.32;;;;;;;6.45;30.71;99594.13;5007898;28;20046;-72
2021/03/11 11:16:02;;;;;;;19.02;11.13;;;;;;;6.29;31.01;99583.38;5006964;28;20042;-75
2021/03/11 11:18:29;;;;;;;22.63;11.63;;;;;;;6.27;30.76;99583.44;5006022;28;20121;-73
2021/03/11 11:20:55;;;;;;;21.45;12.05;;;;;;;6.33;30.85;99580.63;5008390;28;20058;-73
2021/03/11 11:23:22;;;;;;;25.27;12.15;;;;;;;6.42;30.82;99575.13;5012674;28;20064;-73